createdAt,value
2023-03-22T00:01:26.478Z,106.18
2023-03-22T00:03:54.194Z,94.43
2023-03-22T00:06:27.460Z,108.72
2023-03-22T00:08:56.550Z,106.35
2023-03-22T00:11:24.499Z,101.80
2023-03-22T00:13:52.497Z,102.55
2023-03-22T00:16:21.216Z,107.68
2023-03-22T00:18:54.145Z,102.20
2023-03-22T00:21:23.465Z,112.03
2023-03-22T00:23:51.778Z,108.28
2023-03-22T00:26:20.913Z,107.07
2023-03-22T00:28:49.646Z,105.78
2023-03-22T00:31:22.153Z,119.65
2023-03-22T00:33:50.256Z,108.55
2023-03-22T00:36:17.847Z,116.53
2023-03-22T00:38:47.913Z,115.07
2023-03-22T00:41:17.735Z,99.15
2023-03-22T00:43:52.063Z,113.47
2023-03-22T00:46:21.222Z,100.78
2023-03-22T00:48:49.120Z,104.63
2023-03-22T00:51:17.274Z,103.63
2023-03-22T00:53:45.922Z,91.00
2023-03-22T00:56:13.612Z,97.90
2023-03-22T00:58:41.863Z,85.32
2023-03-22T01:01:11.373Z,97.88
2023-03-22T01:03:40.443Z,98.78
2023-03-22T01:06:09.427Z,89.10
2023-03-22T01:08:37.194Z,90.13
2023-03-22T01:11:07.123Z,94.68
2023-03-22T01:13:36.472Z,90.32
2023-03-22T01:16:04.789Z,89.50
2023-03-22T01:18:34.804Z,104.30
2023-03-22T01:21:02.647Z,96.40
2023-03-22T01:23:30.785Z,76.68
2023-03-22T01:25:58.343Z,98.25
2023-03-22T01:28:27.297Z,95.45
2023-03-22T01:30:56.228Z,73.82
2023-03-22T01:33:23.988Z,96.72
2023-03-22T01:35:53.736Z,91.97
2023-03-22T01:38:21.696Z,86.95
2023-03-22T01:40:50.784Z,92.80
2023-03-22T01:43:19.472Z,96.75
2023-03-22T01:45:49.623Z,79.65
2023-03-22T01:48:26.431Z,71.25
2023-03-22T01:51:00.899Z,83.07
2023-03-22T01:53:30.623Z,88.68
2023-03-22T01:55:58.838Z,103.68
2023-03-22T01:58:26.797Z,96.38
2023-03-22T02:00:55.054Z,117.20
2023-03-22T02:03:32.506Z,124.93
2023-03-22T02:06:01.678Z,98.35
2023-03-22T02:08:32.397Z,85.28
2023-03-22T02:11:03.609Z,87.20
2023-03-22T02:13:42.493Z,111.43
2023-03-22T02:16:32.774Z,95.32
2023-03-22T02:19:26.531Z,102.15
2023-03-22T02:22:19.259Z,95.72
2023-03-22T02:25:33.545Z,83.10
2023-03-22T02:28:29.202Z,91.22
2023-03-22T02:31:14.286Z,80.97
2023-03-22T02:34:08.398Z,96.95
2023-03-22T02:37:21.746Z,88.25
2023-03-22T02:39:54.607Z,84.43
2023-03-22T02:42:42.487Z,95.22
2023-03-22T02:45:16.673Z,88.35
2023-03-22T02:47:53.054Z,82.22
2023-03-22T02:50:25.387Z,97.95
2023-03-22T02:52:59.561Z,89.43
2023-03-22T02:55:32.880Z,94.00
2023-03-22T02:58:06.755Z,84.75
2023-03-22T03:00:36.546Z,91.05
2023-03-22T03:03:08.660Z,110.55
2023-03-22T03:05:38.120Z,94.78
2023-03-22T03:08:07.092Z,99.20
2023-03-22T03:10:37.130Z,101.55
2023-03-22T03:13:05.423Z,103.53
2023-03-22T03:15:33.596Z,95.45
2023-03-22T03:18:17.438Z,134.95
2023-03-22T03:20:56.446Z,211.35
2023-03-22T03:23:32.567Z,173.60
2023-03-22T03:26:07.980Z,170.07
2023-03-22T03:28:43.866Z,141.75
2023-03-22T03:31:20.594Z,149.00
2023-03-22T03:33:56.769Z,143.40
2023-03-22T03:36:26.756Z,136.93
2023-03-22T03:38:57.188Z,110.53
2023-03-22T03:41:30.305Z,117.90
2023-03-22T03:43:59.411Z,100.22
2023-03-22T03:46:27.845Z,103.50
2023-03-22T03:48:57.490Z,102.88
2023-03-22T03:51:27.580Z,108.40
2023-03-22T03:53:55.424Z,103.20
2023-03-22T03:56:22.964Z,98.65
2023-03-22T03:58:52.516Z,89.10
2023-03-22T04:01:20.713Z,90.50
2023-03-22T04:03:48.963Z,92.05
2023-03-22T04:06:16.886Z,102.45
2023-03-22T04:08:44.564Z,98.50
2023-03-22T04:11:14.733Z,99.60
2023-03-22T04:13:43.059Z,87.43
2023-03-22T04:16:12.385Z,87.45
2023-03-22T04:18:41.958Z,98.43
2023-03-22T04:21:09.835Z,88.55
2023-03-22T04:23:38.005Z,93.50
2023-03-22T04:26:05.812Z,98.70
2023-03-22T04:28:33.604Z,89.72
2023-03-22T04:31:03.224Z,80.90
2023-03-22T04:33:35.537Z,105.20
2023-03-22T04:36:04.603Z,100.30
2023-03-22T04:38:33.938Z,83.43
2023-03-22T04:41:03.723Z,93.78
2023-03-22T04:43:38.895Z,94.97
2023-03-22T04:46:07.912Z,96.35
2023-03-22T04:48:37.147Z,92.70
2023-03-22T04:51:07.470Z,88.60
2023-03-22T04:53:36.573Z,87.47
2023-03-22T04:56:06.651Z,102.75
2023-03-22T04:58:37.211Z,99.85
2023-03-22T05:01:08.596Z,108.80
2023-03-22T05:03:38.896Z,94.45
2023-03-22T05:06:09.286Z,89.85
2023-03-22T05:08:42.054Z,96.88
2023-03-22T05:11:13.368Z,93.65
2023-03-22T05:13:41.013Z,92.07
2023-03-22T05:16:10.969Z,108.63
2023-03-22T05:18:40.175Z,130.88
2023-03-22T05:21:12.650Z,118.60
2023-03-22T05:23:40.629Z,109.93
2023-03-22T05:26:08.372Z,134.48
2023-03-22T05:28:36.957Z,137.63
2023-03-22T05:31:05.534Z,117.85
2023-03-22T05:33:35.210Z,130.93
2023-03-22T05:36:04.475Z,112.95
2023-03-22T05:38:32.172Z,103.05
2023-03-22T05:41:00.045Z,118.97
2023-03-22T05:43:28.358Z,105.22
2023-03-22T05:45:56.052Z,94.97
2023-03-22T05:48:24.179Z,84.13
2023-03-22T05:50:51.870Z,85.63
2023-03-22T05:53:25.164Z,85.90
2023-03-22T05:55:53.013Z,84.60
2023-03-22T05:58:23.686Z,63.13
2023-03-22T06:00:51.273Z,78.80
2023-03-22T06:03:19.604Z,74.13
2023-03-22T06:05:47.436Z,80.22
2023-03-22T06:08:14.973Z,76.38
2023-03-22T06:10:44.121Z,81.43
2023-03-22T06:13:12.289Z,64.20
2023-03-22T06:15:41.856Z,81.47
2023-03-22T06:18:09.668Z,97.63
2023-03-22T06:20:37.847Z,77.97
2023-03-22T06:23:05.682Z,59.10
2023-03-22T06:25:33.534Z,66.50
2023-03-22T06:28:02.979Z,60.53
2023-03-22T06:30:30.986Z,63.55
2023-03-22T06:33:04.988Z,53.30
2023-03-22T06:35:33.045Z,52.55
2023-03-22T06:38:01.132Z,59.75
2023-03-22T06:40:28.842Z,63.67
2023-03-22T06:42:56.648Z,56.03
2023-03-22T06:45:25.648Z,49.95
2023-03-22T06:47:53.517Z,54.40
2023-03-22T06:50:21.237Z,61.95
2023-03-22T06:52:49.489Z,72.25
2023-03-22T06:55:17.430Z,60.60
2023-03-22T06:57:45.293Z,69.07
2023-03-22T07:00:14.284Z,66.68
2023-03-22T07:02:50.919Z,72.28
2023-03-22T07:05:21.063Z,55.05
2023-03-22T07:07:48.631Z,62.92
2023-03-22T07:10:17.075Z,56.58
2023-03-22T07:12:45.521Z,61.80
2023-03-22T07:15:13.281Z,49.88
2023-03-22T07:17:41.579Z,60.80
2023-03-22T07:20:11.619Z,60.33
2023-03-22T07:22:39.330Z,56.45
2023-03-22T07:25:08.701Z,65.88
2023-03-22T07:27:52.968Z,68.70
2023-03-22T07:30:20.956Z,64.35
2023-03-22T07:32:55.462Z,61.58
2023-03-22T07:35:26.776Z,58.17
2023-03-22T07:37:54.677Z,72.28
2023-03-22T07:40:22.561Z,69.68
2023-03-22T07:42:50.884Z,62.15
2023-03-22T07:45:19.549Z,75.78
2023-03-22T07:47:47.857Z,74.07
2023-03-22T07:50:16.499Z,68.15
2023-03-22T07:52:45.855Z,81.43
2023-03-22T07:55:14.798Z,76.47
2023-03-22T07:57:43.276Z,65.75
2023-03-22T08:00:11.848Z,70.40
2023-03-22T08:02:43.951Z,67.63
2023-03-22T08:05:11.744Z,72.10
2023-03-22T08:07:39.400Z,74.85
2023-03-22T08:10:09.724Z,65.72
2023-03-22T08:12:38.160Z,67.03
2023-03-22T08:15:09.752Z,71.07
2023-03-22T08:17:37.816Z,77.65
2023-03-22T08:20:07.041Z,62.60
2023-03-22T08:22:34.969Z,75.63
2023-03-22T08:25:02.911Z,74.43
2023-03-22T08:27:32.575Z,69.72
2023-03-22T08:30:01.075Z,64.20
2023-03-22T08:32:31.028Z,63.42
2023-03-22T08:34:59.411Z,56.85
2023-03-22T08:37:27.154Z,50.25
2023-03-22T08:39:54.942Z,64.53
2023-03-22T08:42:22.500Z,66.72
2023-03-22T08:44:51.433Z,61.90
2023-03-22T08:47:19.468Z,66.07
2023-03-22T08:49:47.026Z,55.10
2023-03-22T08:52:14.589Z,55.50
2023-03-22T08:54:42.803Z,55.00
2023-03-22T08:57:13.230Z,59.67
2023-03-22T08:59:41.857Z,55.97
2023-03-22T09:02:11.156Z,56.22
2023-03-22T09:04:40.126Z,61.88
2023-03-22T09:07:09.163Z,55.28
2023-03-22T09:09:37.599Z,60.65
2023-03-22T09:12:05.785Z,54.67
2023-03-22T09:14:33.428Z,63.28
2023-03-22T09:17:02.580Z,45.63
2023-03-22T09:19:32.059Z,54.72
2023-03-22T09:21:59.727Z,51.38
2023-03-22T09:24:27.731Z,52.78
2023-03-22T09:26:55.347Z,52.15
2023-03-22T09:29:24.682Z,49.85
2023-03-22T09:31:53.547Z,54.75
2023-03-22T09:34:23.209Z,47.70
2023-03-22T09:36:52.902Z,56.38
2023-03-22T09:39:21.003Z,44.97
2023-03-22T09:41:51.758Z,43.53
2023-03-22T09:44:27.640Z,55.92
2023-03-22T09:46:57.579Z,44.67
2023-03-22T09:49:29.434Z,48.30
2023-03-22T09:51:59.065Z,39.88
2023-03-22T09:54:33.284Z,40.58
2023-03-22T09:57:07.455Z,43.90
2023-03-22T09:59:42.827Z,48.42
2023-03-22T10:02:31.695Z,45.40
2023-03-22T10:05:09.578Z,42.40
2023-03-22T10:07:57.990Z,38.03
2023-03-22T10:10:26.886Z,38.40
2023-03-22T10:13:00.668Z,32.88
2023-03-22T10:15:32.482Z,40.22
2023-03-22T10:18:02.868Z,42.58
2023-03-22T10:20:38.214Z,42.35
2023-03-22T10:23:12.862Z,37.00
2023-03-22T10:25:44.351Z,38.75
2023-03-22T10:28:21.500Z,41.88
2023-03-22T10:30:54.043Z,37.30
2023-03-22T10:33:31.563Z,42.53
2023-03-22T10:36:00.764Z,39.45
2023-03-22T10:38:32.240Z,36.90
2023-03-22T10:41:01.435Z,35.55
2023-03-22T10:43:33.178Z,36.53
2023-03-22T10:46:03.496Z,35.38
2023-03-22T10:48:35.283Z,37.38
2023-03-22T10:51:03.935Z,38.78
2023-03-22T10:53:38.466Z,35.10
2023-03-22T10:56:12.725Z,39.67
2023-03-22T10:58:40.566Z,36.92
2023-03-22T11:01:10.932Z,40.10
2023-03-22T11:03:41.488Z,32.08
2023-03-22T11:06:16.551Z,38.92
2023-03-22T11:08:49.029Z,37.83
2023-03-22T11:11:21.045Z,32.10
2023-03-22T11:13:53.092Z,42.35
2023-03-22T11:16:22.814Z,30.42
2023-03-22T11:18:50.486Z,31.98
2023-03-22T11:21:21.237Z,30.05
2023-03-22T11:23:57.433Z,33.03
2023-03-22T11:26:29.353Z,40.45
2023-03-22T11:29:08.285Z,42.22
2023-03-22T11:31:59.187Z,33.95
2023-03-22T11:34:29.561Z,30.95
2023-03-22T11:37:00.778Z,34.28
2023-03-22T11:39:30.388Z,32.80
2023-03-22T11:41:59.422Z,33.17
2023-03-22T11:44:31.979Z,39.10
2023-03-22T11:47:02.241Z,33.78
2023-03-22T11:49:39.586Z,35.67
2023-03-22T11:52:11.562Z,35.42
2023-03-22T11:54:42.964Z,31.42
2023-03-22T11:57:14.986Z,34.72
2023-03-22T11:59:47.732Z,35.17
2023-03-22T12:02:22.734Z,31.60
2023-03-22T12:04:54.197Z,33.65
2023-03-22T12:07:22.416Z,27.58
2023-03-22T12:09:59.126Z,36.08
2023-03-22T12:12:32.015Z,33.97
2023-03-22T12:15:05.086Z,34.95
2023-03-22T12:17:38.219Z,31.15
2023-03-22T12:20:19.833Z,37.58
2023-03-22T12:22:53.020Z,35.22
2023-03-22T12:25:25.669Z,35.75
2023-03-22T12:27:58.593Z,37.65
2023-03-22T12:30:29.486Z,31.93
2023-03-22T12:33:05.791Z,31.02
2023-03-22T12:35:39.002Z,35.25
2023-03-22T12:38:19.174Z,34.92
2023-03-22T12:40:50.048Z,36.72
2023-03-22T12:43:25.827Z,29.75
2023-03-22T12:45:59.226Z,35.17
2023-03-22T12:48:36.454Z,35.58
2023-03-22T12:51:06.852Z,32.80
2023-03-22T12:53:37.226Z,30.90
2023-03-22T12:56:07.690Z,29.42
2023-03-22T12:58:35.485Z,34.55
2023-03-22T13:01:16.475Z,34.92
2023-03-22T13:03:46.558Z,35.92
2023-03-22T13:06:31.611Z,31.87
2023-03-22T13:09:12.735Z,30.83
2023-03-22T13:11:44.890Z,32.92
2023-03-22T13:17:02.079Z,36.90
2023-03-22T13:19:36.400Z,34.83
2023-03-22T13:22:51.651Z,40.30
2023-03-22T13:25:30.819Z,36.55
2023-03-22T13:28:02.183Z,34.58
2023-03-22T13:30:33.677Z,36.00
2023-03-22T13:33:12.864Z,48.63
2023-03-22T13:35:44.808Z,35.72
2023-03-22T13:38:20.213Z,37.00
2023-03-22T13:40:59.716Z,33.08
2023-03-22T13:43:35.570Z,37.70
2023-03-22T13:46:12.150Z,36.22
2023-03-22T13:48:50.941Z,32.95
2023-03-22T13:51:26.412Z,35.97
2023-03-22T13:53:59.470Z,35.25
2023-03-22T13:56:33.139Z,33.80
2023-03-22T13:59:11.398Z,37.03
2023-03-22T14:01:43.839Z,37.33
2023-03-22T14:04:16.837Z,34.67
2023-03-22T14:06:52.658Z,39.17
2023-03-22T14:09:26.009Z,34.17
2023-03-22T14:12:00.161Z,35.65
2023-03-22T14:14:32.602Z,38.97
2023-03-22T14:17:05.030Z,36.65
